Time;durP1;ratioP1;P1;durP2;ratioP2;P2;SDS_P1;SDS_P2;PMS_P1;PMS_P2;Temp;Humidity;BMP_temperature;BMP_pressure;BME280_temperature;BME280_humidity;BME280_pressure;Samples;Min_cycle;Max_cycle;Signal;HPM_P1;HPM_P2
2023/09/13 00:00:11;;;;;;;4.07;3.67;;;26.80;98.60;;;;;;5013151;28;20188;-91
2023/09/13 00:02:46;;;;;;;4.17;3.77;;;26.80;98.60;;;;;;5012532;28;20177;-91
2023/09/13 00:05:18;;;;;;;4.10;3.80;;;26.80;98.70;;;;;;5011438;28;20181;-91
2023/09/13 00:07:43;;;;;;;4.43;4.03;;;26.80;98.70;;;;;;5009200;28;20509;-91
2023/09/13 00:10:12;;;;;;;4.27;3.87;;;26.80;98.70;;;;;;5010031;28;20213;-91
2023/09/13 00:12:41;;;;;;;4.50;4.10;;;26.80;98.70;;;;;;5012093;28;20540;-91
2023/09/13 00:15:07;;;;;;;5.17;4.30;;;26.80;98.70;;;;;;5011355;28;20178;-91
2023/09/13 00:17:35;;;;;;;4.70;4.20;;;26.80;98.70;;;;;;5009718;28;20195;-91
2023/09/13 00:20:03;;;;;;;4.53;4.13;;;26.80;98.70;;;;;;5012691;28;20216;-91
2023/09/13 00:22:38;;;;;;;4.63;4.23;;;26.80;98.70;;;;;;5011623;28;20173;-91
2023/09/13 00:25:06;;;;;;;4.50;4.10;;;26.80;98.70;;;;;;5013885;28;20169;-91
2023/09/13 00:27:39;;;;;;;5.10;3.83;;;26.80;98.80;;;;;;5013299;28;20186;-91
2023/09/13 00:30:10;;;;;;;4.30;3.90;;;26.80;98.80;;;;;;5012971;28;20296;-91
2023/09/13 00:32:42;;;;;;;4.10;3.70;;;26.80;98.80;;;;;;5012668;28;20166;-91
2023/09/13 00:35:08;;;;;;;4.60;4.20;;;26.70;98.70;;;;;;5013536;28;20184;-91
2023/09/13 00:37:36;;;;;;;4.83;4.33;;;26.70;98.70;;;;;;5015388;28;20177;-90
2023/09/13 00:40:05;;;;;;;4.83;3.80;;;26.70;98.80;;;;;;5022167;28;20200;-90
2023/09/13 00:42:34;;;;;;;4.47;4.07;;;26.70;98.80;;;;;;5033411;28;20193;-90
2023/09/13 00:45:00;;;;;;;4.57;4.17;;;26.70;98.80;;;;;;5018971;28;20223;-90
2023/09/13 00:47:26;;;;;;;4.30;3.90;;;26.70;98.80;;;;;;5033347;23;20642;-78
2023/09/13 00:49:51;;;;;;;4.40;4.00;;;26.70;98.80;;;;;;5020012;28;20209;-79
2023/09/13 00:52:17;;;;;;;4.50;4.10;;;26.70;98.90;;;;;;5020140;28;20229;-80
2023/09/13 00:54:44;;;;;;;4.30;3.90;;;26.70;98.80;;;;;;5020758;28;20250;-78
2023/09/13 00:57:11;;;;;;;3.77;3.47;;;26.70;98.90;;;;;;5020643;28;20199;-78
2023/09/13 00:59:37;;;;;;;4.33;3.97;;;26.70;98.90;;;;;;5021269;28;20457;-78
2023/09/13 01:02:02;;;;;;;4.30;3.90;;;26.70;98.90;;;;;;5021663;28;20178;-78
2023/09/13 01:04:32;;;;;;;4.17;3.87;;;26.70;98.90;;;;;;5022185;28;20260;-78
2023/09/13 01:06:58;;;;;;;4.03;3.70;;;26.70;98.90;;;;;;5022369;28;20545;-79
2023/09/13 01:09:24;;;;;;;4.00;3.70;;;26.70;98.90;;;;;;5023283;28;20209;-79
2023/09/13 01:11:50;;;;;;;4.63;3.80;;;26.70;98.90;;;;;;5023412;28;20219;-79
2023/09/13 01:14:19;;;;;;;3.93;3.53;;;26.70;98.90;;;;;;5022261;28;20265;-79
2023/09/13 01:16:53;;;;;;;5.10;4.03;;;26.60;98.90;;;;;;5021211;28;20736;-78
2023/09/13 01:19:51;;;;;;;4.27;3.87;;;26.60;98.90;;;;;;5022809;28;20188;-79
2023/09/13 01:22:54;;;;;;;4.40;4.00;;;26.60;99.00;;;;;;5022935;28;20192;-78
2023/09/13 01:26:00;;;;;;;4.30;3.90;;;26.60;98.90;;;;;;5022727;28;20181;-79
2023/09/13 01:28:35;;;;;;;4.30;3.90;;;26.60;99.00;;;;;;5022208;28;20180;-79
2023/09/13 01:31:11;;;;;;;4.60;4.20;;;26.60;99.00;;;;;;5022262;28;20181;-79
2023/09/13 01:33:47;;;;;;;4.97;4.03;;;26.60;99.00;;;;;;5022747;28;20177;-79
2023/09/13 01:36:13;;;;;;;4.17;3.87;;;26.60;99.00;;;;;;5021867;28;20185;-78
2023/09/13 01:38:39;;;;;;;4.70;4.30;;;26.60;99.00;;;;;;5021307;28;20173;-78
2023/09/13 01:41:22;;;;;;;4.70;3.93;;;26.60;99.00;;;;;;5021339;28;20484;-79
2023/09/13 01:43:53;;;;;;;4.53;4.10;;;26.60;99.00;;;;;;5019087;28;20189;-78
2023/09/13 01:46:20;;;;;;;4.57;4.07;;;26.60;99.00;;;;;;5022007;28;20178;-78
2023/09/13 01:48:46;;;;;;;4.80;4.20;;;26.60;99.00;;;;;;5021546;28;20225;-78
2023/09/13 01:51:14;;;;;;;4.83;4.33;;;26.60;99.00;;;;;;5021713;28;20205;-79
2023/09/13 01:53:44;;;;;;;6.80;4.43;;;26.60;99.10;;;;;;5022295;28;20205;-79
2023/09/13 01:56:09;;;;;;;4.80;4.27;;;26.60;99.10;;;;;;5019082;28;20177;-79
2023/09/13 01:58:35;;;;;;;4.77;4.37;;;26.60;99.10;;;;;;5019519;28;20315;-78
2023/09/13 02:01:02;;;;;;;5.03;4.53;;;26.60;99.10;;;;;;5018599;28;20181;-78
2023/09/13 02:03:28;;;;;;;4.77;4.37;;;26.60;99.10;;;;;;5019022;28;20178;-79
2023/09/13 02:05:54;;;;;;;5.23;4.53;;;26.60;99.10;;;;;;5019272;28;20577;-79
2023/09/13 02:08:19;;;;;;;5.57;5.03;;;26.50;99.10;;;;;;5020024;28;20532;-78
2023/09/13 02:10:48;;;;;;;5.40;4.77;;;26.50;99.10;;;;;;5020903;28;20219;-80
2023/09/13 02:13:14;;;;;;;5.07;4.63;;;26.50;99.10;;;;;;5020887;28;20177;-80
2023/09/13 02:15:41;;;;;;;5.67;5.17;;;26.50;99.10;;;;;;5020399;28;20457;-80
2023/09/13 02:18:07;;;;;;;6.00;5.40;;;26.50;99.10;;;;;;5020301;28;20443;-79
2023/09/13 02:20:40;;;;;;;5.80;5.30;;;26.50;99.10;;;;;;5019851;28;20792;-80
2023/09/13 02:23:06;;;;;;;6.53;5.73;;;26.50;99.10;;;;;;5019576;28;20188;-79
2023/09/13 02:25:36;;;;;;;5.70;5.20;;;26.50;99.10;;;;;;5019063;28;20182;-79
2023/09/13 02:28:05;;;;;;;6.50;5.90;;;26.50;99.10;;;;;;5018370;28;20606;-78
2023/09/13 02:30:34;;;;;;;6.40;5.80;;;26.50;99.10;;;;;;5018430;28;20228;-79
2023/09/13 02:33:00;;;;;;;6.60;6.00;;;26.50;99.10;;;;;;5018971;28;20185;-80
2023/09/13 02:35:26;;;;;;;6.80;6.20;;;26.50;99.10;;;;;;5018917;28;20174;-79
2023/09/13 02:37:55;;;;;;;6.43;5.90;;;26.50;99.20;;;;;;5018937;28;20185;-80
2023/09/13 02:40:28;;;;;;;6.33;5.70;;;26.50;99.20;;;;;;5018728;28;20197;-80
2023/09/13 02:42:54;;;;;;;7.87;7.17;;;26.50;99.20;;;;;;5018442;28;20436;-81
2023/09/13 02:45:55;;;;;;;7.50;6.80;;;26.50;99.20;;;;;;5019219;28;20185;-83
2023/09/13 02:48:20;;;;;;;7.03;6.30;;;26.50;99.20;;;;;;4998181;28;20215;-81
2023/09/13 02:50:58;;;;;;;7.60;6.90;;;26.50;99.20;;;;;;5018896;28;20308;-81
2023/09/13 02:54:07;;;;;;;7.70;7.00;;;26.50;99.20;;;;;;5019112;28;20181;-82
2023/09/13 02:57:09;;;;;;;9.07;7.40;;;26.50;99.30;;;;;;5018340;28;20209;-82
2023/09/13 03:00:13;;;;;;;8.13;7.43;;;26.40;99.20;;;;;;5013901;28;20185;-82
2023/09/13 03:02:39;;;;;;;8.60;7.70;;;26.40;99.30;;;;;;5017768;28;20199;-79
2023/09/13 03:05:05;;;;;;;8.70;7.77;;;26.50;99.30;;;;;;5017888;28;20590;-79
2023/09/13 03:07:31;;;;;;;8.67;7.90;;;26.50;99.30;;;;;;5018036;28;20528;-79
2023/09/13 03:09:57;;;;;;;9.80;8.03;;;26.40;99.30;;;;;;5018106;28;20213;-79
2023/09/13 03:12:23;;;;;;;9.17;8.37;;;26.40;99.30;;;;;;5017231;28;20183;-79
2023/09/13 03:14:49;;;;;;;8.70;7.90;;;26.40;99.30;;;;;;5018200;28;20460;-79
2023/09/13 03:17:15;;;;;;;11.27;9.17;;;26.40;99.30;;;;;;5018190;28;20177;-80
2023/09/13 03:19:41;;;;;;;9.43;8.10;;;26.40;99.30;;;;;;5017871;28;20177;-82
2023/09/13 03:22:07;;;;;;;9.30;8.40;;;26.40;99.30;;;;;;5017221;28;20189;-82
2023/09/13 03:24:38;;;;;;;9.80;8.90;;;26.40;99.30;;;;;;5017636;28;20177;-82
2023/09/13 03:27:09;;;;;;;9.27;8.47;;;26.40;99.40;;;;;;5017304;28;20280;-83
2023/09/13 03:29:34;;;;;;;9.40;8.50;;;26.40;99.30;;;;;;5017089;28;20259;-82
2023/09/13 03:32:09;;;;;;;10.70;9.70;;;26.40;99.40;;;;;;5017024;28;20177;-82
2023/09/13 03:34:51;;;;;;;9.27;8.40;;;26.40;99.40;;;;;;5017305;28;20177;-82
2023/09/13 03:37:32;;;;;;;9.33;8.37;;;26.40;99.40;;;;;;5017394;28;20177;-82
2023/09/13 03:40:14;;;;;;;9.90;9.00;;;26.40;99.40;;;;;;5016990;28;20710;-82
2023/09/13 03:46:09;;;;;;;9.70;8.90;;;26.40;99.40;;;;;;5013001;28;20200;-82
2023/09/13 03:48:36;;;;;;;10.50;9.50;;;26.40;99.40;;;;;;5013236;28;20282;-81
2023/09/13 03:51:03;;;;;;;10.33;9.37;;;26.40;99.40;;;;;;5015238;28;20213;-81
2023/09/13 03:53:29;;;;;;;10.73;9.17;;;26.30;99.40;;;;;;5013857;28;20228;-80
2023/09/13 03:55:55;;;;;;;10.67;9.67;;;26.40;99.40;;;;;;5012984;28;20589;-80
2023/09/13 03:58:22;;;;;;;10.90;9.47;;;26.30;99.40;;;;;;5012143;28;20181;-81
2023/09/13 04:00:57;;;;;;;10.50;9.50;;;26.30;99.40;;;;;;5010720;28;20413;-83
2023/09/13 04:03:40;;;;;;;10.47;9.57;;;26.30;99.40;;;;;;5009958;28;20453;-82
2023/09/13 04:06:06;;;;;;;11.47;10.13;;;26.30;99.40;;;;;;5011273;28;20177;-81
2023/09/13 04:08:32;;;;;;;10.90;9.80;;;26.30;99.50;;;;;;5013599;28;20601;-81
2023/09/13 04:10:58;;;;;;;10.60;9.53;;;26.30;99.40;;;;;;5012811;28;20300;-81
2023/09/13 04:13:23;;;;;;;12.03;9.73;;;26.30;99.40;;;;;;5012412;28;20184;-81
2023/09/13 04:15:50;;;;;;;11.60;10.27;;;26.30;99.50;;;;;;5013793;28;20269;-81
2023/09/13 04:18:15;;;;;;;12.70;10.27;;;26.30;99.50;;;;;;5012677;28;20535;-80
2023/09/13 04:20:48;;;;;;;11.13;9.97;;;26.30;99.50;;;;;;5010962;28;20190;-81
2023/09/13 04:23:14;;;;;;;11.40;10.00;;;26.30;99.50;;;;;;5011617;28;20284;-81
2023/09/13 04:25:40;;;;;;;11.93;10.73;;;26.30;99.60;;;;;;5008923;28;20189;-80
2023/09/13 04:28:06;;;;;;;12.23;11.03;;;26.30;99.50;;;;;;5009552;28;20289;-81
2023/09/13 04:30:32;;;;;;;11.23;10.13;;;26.30;99.60;;;;;;5009020;28;20322;-80
2023/09/13 04:33:00;;;;;;;10.87;9.77;;;26.30;99.50;;;;;;5008475;28;20177;-79
2023/09/13 04:35:26;;;;;;;11.77;10.57;;;26.30;99.60;;;;;;5008520;28;20173;-78
2023/09/13 04:37:53;;;;;;;11.47;10.40;;;26.20;99.50;;;;;;5007801;28;20185;-78
2023/09/13 04:40:19;;;;;;;11.73;10.53;;;26.20;99.60;;;;;;5010136;28;20201;-79
2023/09/13 04:42:55;;;;;;;12.10;10.93;;;26.20;99.50;;;;;;5009115;28;20283;-79
2023/09/13 04:45:22;;;;;;;12.03;10.83;;;26.20;99.60;;;;;;5012339;28;20189;-79
2023/09/13 04:47:48;;;;;;;10.53;9.53;;;26.30;99.60;;;;;;5026024;28;20280;-78
2023/09/13 04:50:13;;;;;;;11.77;10.57;;;26.20;99.60;;;;;;5015049;28;20343;-80
2023/09/13 04:52:39;;;;;;;11.80;10.43;;;26.20;99.60;;;;;;5014787;28;20394;-79
2023/09/13 04:55:06;;;;;;;11.53;9.93;;;26.20;99.60;;;;;;5006220;28;20305;-81
2023/09/13 04:57:31;;;;;;;11.90;10.70;;;26.20;99.60;;;;;;4995746;28;20171;-79
2023/09/13 04:59:57;;;;;;;11.77;9.67;;;26.20;99.60;;;;;;4995090;28;20430;-79
2023/09/13 05:02:23;;;;;;;11.10;10.00;;;26.20;99.60;;;;;;5018975;23;20210;-6
2023/09/13 05:04:48;;;;;;;11.17;9.80;;;26.20;99.60;;;;;;5015579;28;20185;-8
2023/09/13 05:07:14;;;;;;;11.33;10.23;;;26.20;99.60;;;;;;5015242;28;20243;-8
2023/09/13 05:09:41;;;;;;;12.53;9.60;;;26.20;99.70;;;;;;5015580;28;20213;-8
2023/09/13 05:12:07;;;;;;;10.93;9.87;;;26.20;99.60;;;;;;5015048;28;20542;-8
2023/09/13 05:14:33;;;;;;;10.80;9.77;;;26.20;99.60;;;;;;5014318;28;20188;-7
2023/09/13 05:16:59;;;;;;;11.27;10.03;;;26.20;99.60;;;;;;5014294;28;20181;-8
2023/09/13 05:19:30;;;;;;;12.00;10.30;;;26.20;99.60;;;;;;5014596;28;20471;-8
2023/09/13 05:21:56;;;;;;;10.30;9.30;;;26.10;99.90;;;;;;5013555;28;20556;-8
2023/09/13 05:24:22;;;;;;;10.53;9.50;;;26.20;99.70;;;;;;5014648;28;20264;-7
2023/09/13 05:26:47;;;;;;;10.63;9.63;;;26.20;99.60;;;;;;5014133;28;20178;-9
2023/09/13 05:29:14;;;;;;;11.20;9.10;;;26.10;99.60;;;;;;5014133;28;20209;-8
2023/09/13 05:31:40;;;;;;;11.60;10.20;;;26.10;99.60;;;;;;5018374;28;20182;-7
2023/09/13 05:34:06;;;;;;;10.10;9.10;;;26.10;99.60;;;;;;5019006;28;20170;-6
2023/09/13 05:36:31;;;;;;;10.90;9.87;;;26.10;99.60;;;;;;5018172;28;20444;-8
2023/09/13 05:38:57;;;;;;;10.77;9.67;;;26.10;99.60;;;;;;5017406;28;20220;-7
2023/09/13 05:41:23;;;;;;;10.70;9.63;;;26.10;99.60;;;;;;5017898;28;20224;-7
2023/09/13 05:43:48;;;;;;;10.40;9.17;;;26.10;99.60;;;;;;5018413;28;20188;-7
2023/09/13 05:46:22;;;;;;;10.73;9.63;;;26.10;99.60;;;;;;5018084;28;20174;-7
2023/09/13 05:48:47;;;;;;;11.10;9.80;;;26.10;99.60;;;;;;5015585;28;20184;-6
2023/09/13 05:51:13;;;;;;;10.63;9.53;;;26.10;99.60;;;;;;5016287;28;20178;-7
2023/09/13 05:53:39;;;;;;;9.97;8.97;;;26.10;99.60;;;;;;5016547;28;20188;-9
2023/09/13 05:56:04;;;;;;;10.00;9.00;;;26.10;99.60;;;;;;5016504;28;20215;-8
2023/09/13 05:58:30;;;;;;;10.57;9.57;;;26.10;99.60;;;;;;5033368;28;20503;-7
2023/09/13 06:00:57;;;;;;;10.17;9.17;;;26.10;99.60;;;;;;5021123;23;20381;-7
2023/09/13 06:03:22;;;;;;;9.13;8.33;;;26.10;99.50;;;;;;5006476;28;20414;-7
2023/09/13 06:05:50;;;;;;;10.10;9.10;;;26.10;99.50;;;;;;5007595;28;20176;-6
2023/09/13 06:08:19;;;;;;;9.90;8.87;;;26.10;99.60;;;;;;5007869;28;20354;-8
2023/09/13 06:10:48;;;;;;;11.17;9.23;;;26.10;99.60;;;;;;5008444;28;20343;-7
2023/09/13 06:13:15;;;;;;;9.20;8.30;;;26.10;99.60;;;;;;5007542;28;20244;-8
2023/09/13 06:15:41;;;;;;;9.40;8.47;;;26.10;99.60;;;;;;5007693;28;20165;-9
2023/09/13 06:18:07;;;;;;;9.03;7.70;;;26.10;99.50;;;;;;5006874;28;20240;-7
2023/09/13 06:20:33;;;;;;;9.03;8.07;;;26.10;99.50;;;;;;5005349;28;20461;-7
2023/09/13 06:22:59;;;;;;;9.80;8.80;;;26.00;99.50;;;;;;5006749;28;20360;-8
2023/09/13 06:25:25;;;;;;;10.00;8.27;;;26.10;99.60;;;;;;5004035;28;20192;-8
2023/09/13 06:27:51;;;;;;;9.10;8.20;;;26.00;99.50;;;;;;5005676;28;20321;-8
2023/09/13 06:30:17;;;;;;;8.70;7.77;;;26.00;99.50;;;;;;5008095;28;20213;-9
2023/09/13 06:32:42;;;;;;;10.20;8.17;;;26.00;99.50;;;;;;5016001;28;20170;-8
2023/09/13 06:35:13;;;;;;;8.23;7.43;;;26.00;99.50;;;;;;5016547;28;20181;-6
2023/09/13 06:37:41;;;;;;;7.80;7.10;;;26.00;99.50;;;;;;5016880;28;20213;-7
2023/09/13 06:40:08;;;;;;;8.87;7.97;;;26.00;99.50;;;;;;5016474;28;20178;-7
2023/09/13 06:42:33;;;;;;;8.30;7.50;;;26.00;99.50;;;;;;5015229;28;20235;-7
2023/09/13 06:45:00;;;;;;;8.40;7.60;;;26.00;99.40;;;;;;5017778;28;20272;-7
2023/09/13 06:47:28;;;;;;;7.70;7.00;;;26.00;99.40;;;;;;5017612;28;20714;-9
2023/09/13 06:49:54;;;;;;;11.23;7.20;;;26.00;99.40;;;;;;5016440;28;20258;-6
2023/09/13 06:52:20;;;;;;;9.03;7.70;;;26.00;99.40;;;;;;5017882;28;20180;-8
2023/09/13 06:54:46;;;;;;;7.63;6.83;;;26.00;99.40;;;;;;5017259;28;20265;-7
2023/09/13 06:57:12;;;;;;;7.77;6.90;;;26.00;99.40;;;;;;5016395;28;20197;-7
2023/09/13 06:59:38;;;;;;;7.83;7.07;;;26.00;99.40;;;;;;5014780;28;20178;-8
2023/09/13 07:02:05;;;;;;;7.20;6.50;;;26.00;99.40;;;;;;5016652;28;20193;-7
2023/09/13 07:04:30;;;;;;;7.70;6.97;;;26.00;99.40;;;;;;5016022;28;20200;-7
2023/09/13 07:06:56;;;;;;;7.43;6.80;;;26.00;99.30;;;;;;5016123;28;20185;-7
2023/09/13 07:09:22;;;;;;;8.30;6.77;;;26.00;99.30;;;;;;5016390;28;20214;-8
2023/09/13 07:11:47;;;;;;;7.43;6.70;;;26.00;99.40;;;;;;5017083;28;20240;-9
2023/09/13 07:14:13;;;;;;;7.53;6.83;;;26.00;99.30;;;;;;5017323;28;20178;-8
2023/09/13 07:16:39;;;;;;;7.47;6.27;;;26.00;99.40;;;;;;5016665;28;20252;-8
2023/09/13 07:19:04;;;;;;;7.10;6.43;;;25.90;99.30;;;;;;5014427;28;20792;-8
2023/09/13 07:21:30;;;;;;;7.27;6.43;;;26.00;99.30;;;;;;5016128;28;20518;-7
2023/09/13 07:23:56;;;;;;;6.57;5.97;;;25.90;99.30;;;;;;5016088;28;20281;-9
2023/09/13 07:26:21;;;;;;;6.63;6.03;;;25.90;99.30;;;;;;5015606;28;20184;-8
2023/09/13 07:28:47;;;;;;;6.80;6.17;;;25.90;99.30;;;;;;5016413;28;20208;-9
2023/09/13 07:31:13;;;;;;;6.57;5.90;;;25.90;99.30;;;;;;5020067;23;20229;-77
2023/09/13 07:33:38;;;;;;;6.53;5.53;;;25.90;99.30;;;;;;5006413;28;20182;-77
2023/09/13 07:36:04;;;;;;;6.77;6.07;;;25.90;99.20;;;;;;5009663;28;20429;-77
2023/09/13 07:38:30;;;;;;;6.50;5.90;;;25.90;99.30;;;;;;5014550;28;20181;-78
2023/09/13 07:40:56;;;;;;;6.93;5.90;;;25.90;99.20;;;;;;5010191;28;20177;-77
2023/09/13 07:43:22;;;;;;;6.53;5.93;;;25.90;99.20;;;;;;5004867;28;20503;-77
2023/09/13 07:45:49;;;;;;;6.23;5.67;;;25.90;99.30;;;;;;5010625;28;20280;-78
2023/09/13 07:48:15;;;;;;;7.13;5.90;;;25.90;99.20;;;;;;5013392;28;20265;-78
2023/09/13 07:50:40;;;;;;;6.37;5.77;;;25.90;99.20;;;;;;5012058;28;20373;-78
2023/09/13 07:53:15;;;;;;;6.93;5.93;;;25.90;99.20;;;;;;5011380;28;20277;-78
2023/09/13 07:55:41;;;;;;;6.47;5.80;;;25.90;99.20;;;;;;5011355;28;20177;-78
2023/09/13 07:58:08;;;;;;;6.20;5.70;;;25.90;99.20;;;;;;5014508;28;20178;-78
2023/09/13 08:00:34;;;;;;;6.23;5.70;;;25.90;99.20;;;;;;5011414;28;20188;-78
2023/09/13 08:03:01;;;;;;;5.93;5.33;;;25.90;99.20;;;;;;5013896;28;20320;-77
2023/09/13 08:05:27;;;;;;;6.37;5.77;;;25.90;99.20;;;;;;5008370;28;20180;-78
2023/09/13 08:07:55;;;;;;;6.57;5.60;;;25.90;99.20;;;;;;5008845;28;20177;-78
2023/09/13 08:10:22;;;;;;;6.90;6.30;;;25.90;99.20;;;;;;5009629;28;20654;-77
2023/09/13 08:12:48;;;;;;;6.53;5.33;;;25.90;99.10;;;;;;5008539;28;20181;-78
2023/09/13 08:15:14;;;;;;;6.83;6.13;;;25.90;99.10;;;;;;5008384;28;20323;-77
2023/09/13 08:17:40;;;;;;;6.17;5.53;;;25.90;99.10;;;;;;5008163;28;20431;-78
2023/09/13 08:20:08;;;;;;;7.07;5.70;;;25.90;99.10;;;;;;5008262;28;20173;-77
2023/09/13 08:22:34;;;;;;;5.90;5.40;;;25.90;99.10;;;;;;5009921;28;20246;-78
2023/09/13 08:25:00;;;;;;;5.63;5.17;;;25.90;99.10;;;;;;5009619;28;20219;-79
2023/09/13 08:27:26;;;;;;;6.47;5.87;;;25.90;99.10;;;;;;5007594;28;20563;-78
2023/09/13 08:29:53;;;;;;;6.00;5.50;;;25.90;99.10;;;;;;5004366;28;20307;-79
2023/09/13 08:32:19;;;;;;;6.00;5.50;;;25.90;99.10;;;;;;5010373;28;20289;-77
2023/09/13 08:34:45;;;;;;;6.13;5.63;;;25.90;99.00;;;;;;5006918;28;20272;-78
2023/09/13 08:37:10;;;;;;;6.47;5.87;;;25.90;99.00;;;;;;5008627;28;20174;-78
2023/09/13 08:39:36;;;;;;;6.30;5.70;;;25.90;99.00;;;;;;5006980;28;20185;-79
2023/09/13 08:42:03;;;;;;;6.07;5.57;;;25.90;99.00;;;;;;5008592;28;20521;-79
2023/09/13 08:44:30;;;;;;;6.50;5.90;;;26.00;98.90;;;;;;5008393;28;20185;-78
2023/09/13 08:46:58;;;;;;;5.90;5.40;;;26.00;98.80;;;;;;5009440;28;20210;-78
2023/09/13 08:49:24;;;;;;;6.27;5.67;;;26.00;98.70;;;;;;5008342;28;20271;-78
2023/09/13 08:51:54;;;;;;;6.17;5.57;;;26.00;98.80;;;;;;5012073;28;20178;-77
2023/09/13 08:54:21;;;;;;;6.07;5.47;;;26.00;98.80;;;;;;5015338;28;20177;-78
2023/09/13 08:56:47;;;;;;;6.27;5.67;;;25.90;98.80;;;;;;5012494;28;20239;-79
2023/09/13 08:59:14;;;;;;;5.70;5.20;;;25.90;98.80;;;;;;5004821;28;20603;-78
2023/09/13 09:01:46;;;;;;;6.03;5.50;;;25.90;98.80;;;;;;5008485;28;20201;-78
2023/09/13 09:04:14;;;;;;;6.77;6.17;;;25.90;98.80;;;;;;5004832;28;20173;-79
2023/09/13 09:06:41;;;;;;;6.07;5.47;;;25.90;98.80;;;;;;5011172;28;20259;-78
2023/09/13 09:09:10;;;;;;;6.70;6.00;;;25.90;98.80;;;;;;5016005;28;20189;-78
2023/09/13 09:11:38;;;;;;;5.97;5.43;;;25.90;98.80;;;;;;5013522;28;20173;-77
2023/09/13 09:14:04;;;;;;;6.43;5.90;;;25.90;98.80;;;;;;5012521;28;20445;-78
2023/09/13 09:16:31;;;;;;;5.83;5.23;;;25.90;98.80;;;;;;5014209;28;20174;-77
2023/09/13 09:19:00;;;;;;;6.53;5.90;;;25.90;98.70;;;;;;5017053;28;20499;-79
2023/09/13 09:21:26;;;;;;;6.67;5.97;;;25.90;98.70;;;;;;5007957;28;20247;-78
2023/09/13 09:23:52;;;;;;;6.47;5.93;;;25.90;98.60;;;;;;5007162;28;20460;-78
2023/09/13 09:26:19;;;;;;;5.80;5.30;;;26.00;98.40;;;;;;5002538;28;20192;-79
2023/09/13 09:28:46;;;;;;;6.40;5.80;;;26.10;98.40;;;;;;4989422;28;20563;-79
2023/09/13 09:31:12;;;;;;;6.17;5.57;;;26.20;98.10;;;;;;4989280;28;20540;-78
2023/09/13 09:33:39;;;;;;;6.35;5.75;;;26.20;98.10;;;;;;4988199;28;20182;-79
2023/09/13 09:36:09;;;;;;;6.57;5.90;;;26.30;97.80;;;;;;4989504;28;20182;-79
2023/09/13 09:38:35;;;;;;;5.97;5.47;;;26.50;97.20;;;;;;4988143;28;20178;-78
2023/09/13 09:41:06;;;;;;;6.40;5.80;;;26.60;97.00;;;;;;4988626;28;20174;-78
2023/09/13 09:43:33;;;;;;;5.60;5.10;;;26.40;97.20;;;;;;4987974;28;20175;-79
2023/09/13 09:46:00;;;;;;;6.28;5.70;;;26.40;97.40;;;;;;4996990;28;20216;-78
2023/09/13 09:48:29;;;;;;;5.75;5.25;;;26.40;97.30;;;;;;5014774;28;20181;-78
2023/09/13 09:50:55;;;;;;;6.00;5.47;;;26.40;97.40;;;;;;5012226;28;20498;-79
2023/09/13 09:53:22;;;;;;;6.45;5.78;;;26.30;97.50;;;;;;5005462;28;20177;-79
2023/09/13 09:55:48;;;;;;;6.53;5.93;;;26.30;97.60;;;;;;5004633;28;20563;-78
2023/09/13 09:58:15;;;;;;;6.55;5.95;;;26.20;97.60;;;;;;5005497;28;20248;-78
2023/09/13 10:00:52;;;;;;;6.43;5.82;;;26.30;97.60;;;;;;5002115;28;20185;-78
2023/09/13 10:03:19;;;;;;;6.50;5.90;;;26.30;97.40;;;;;;4986719;28;20174;-79
2023/09/13 10:05:52;;;;;;;6.20;5.60;;;26.40;97.30;;;;;;4986817;28;20174;-79
2023/09/13 10:08:17;;;;;;;6.53;6.00;;;26.40;97.20;;;;;;5012260;28;20243;-78
2023/09/13 10:10:44;;;;;;;6.70;6.03;;;26.50;96.80;;;;;;5012927;28;20201;-79
2023/09/13 10:13:14;;;;;;;6.30;5.70;;;26.60;96.50;;;;;;5007943;28;20201;-78
2023/09/13 10:15:40;;;;;;;6.70;6.07;;;26.60;96.60;;;;;;5005697;28;20466;-79
2023/09/13 10:18:09;;;;;;;7.00;6.32;;;26.60;96.60;;;;;;5006114;28;20177;-79
2023/09/13 10:20:35;;;;;;;6.60;6.00;;;26.50;96.70;;;;;;5011754;28;20554;-79
2023/09/13 10:23:06;;;;;;;7.45;6.00;;;26.40;96.90;;;;;;5009643;28;20177;-79
2023/09/13 10:25:34;;;;;;;6.47;5.88;;;26.40;97.10;;;;;;5009863;28;20231;-79
2023/09/13 10:28:01;;;;;;;6.93;6.25;;;26.40;97.20;;;;;;5012854;28;20174;-78
2023/09/13 10:30:31;;;;;;;6.50;5.90;;;26.30;97.20;;;;;;5011401;28;20666;-78
2023/09/13 10:33:03;;;;;;;6.25;5.65;;;26.30;97.20;;;;;;5017519;28;20165;-78
2023/09/13 10:35:32;;;;;;;6.03;5.43;;;26.30;97.30;;;;;;5016480;28;20597;-78
2023/09/13 10:38:09;;;;;;;6.72;6.13;;;26.30;97.30;;;;;;5013179;28;20174;-78
2023/09/13 10:40:43;;;;;;;6.28;5.70;;;26.30;97.30;;;;;;5002158;28;20173;-79
2023/09/13 10:43:09;;;;;;;6.97;6.28;;;26.30;97.40;;;;;;5018806;28;20178;-78
2023/09/13 10:45:40;;;;;;;5.97;5.47;;;26.30;97.40;;;;;;5014076;28;20173;-78
2023/09/13 10:48:08;;;;;;;6.68;6.03;;;26.20;97.40;;;;;;5016709;28;20185;-78
2023/09/13 10:50:34;;;;;;;6.87;6.27;;;26.30;97.40;;;;;;5012443;28;20198;-78
2023/09/13 10:53:00;;;;;;;6.30;5.73;;;26.30;97.40;;;;;;5012285;28;20588;-78
2023/09/13 10:55:27;;;;;;;5.90;5.40;;;26.30;97.50;;;;;;4995265;28;20218;-78
2023/09/13 10:57:55;;;;;;;6.63;6.00;;;26.30;97.50;;;;;;4993790;28;20724;-78
2023/09/13 11:00:48;;;;;;;6.53;6.03;;;26.30;97.50;;;;;;5013753;28;20249;-78
2023/09/13 11:03:19;;;;;;;6.07;5.47;;;26.30;97.50;;;;;;5011556;28;20190;-78
2023/09/13 11:05:52;;;;;;;5.87;5.37;;;26.30;97.50;;;;;;5016682;28;20597;-78
2023/09/13 11:08:34;;;;;;;6.10;5.60;;;26.20;97.50;;;;;;5014279;28;20212;-78
2023/09/13 11:11:18;;;;;;;5.97;5.47;;;26.20;97.50;;;;;;5018417;28;20209;-78
2023/09/13 11:13:53;;;;;;;5.90;5.40;;;26.20;97.60;;;;;;5013922;28;20173;-77
2023/09/13 11:16:22;;;;;;;6.60;5.83;;;26.20;97.70;;;;;;5014861;28;20177;-77
2023/09/13 11:18:52;;;;;;;5.97;5.47;;;26.20;97.70;;;;;;5012477;28;20204;-77
2023/09/13 11:21:26;;;;;;;5.67;5.17;;;26.20;97.70;;;;;;5012501;28;20244;-78
2023/09/13 11:23:53;;;;;;;5.53;5.07;;;26.20;97.70;;;;;;5012437;28;20173;-77
2023/09/13 11:26:54;;;;;;;5.53;5.10;;;26.10;97.70;;;;;;5011452;28;20182;-79
2023/09/13 11:29:21;;;;;;;5.40;4.90;;;26.10;97.70;;;;;;5012305;28;20166;-78
2023/09/13 11:32:02;;;;;;;5.33;4.83;;;26.10;97.70;;;;;;5011532;28;20196;-78
2023/09/13 11:34:28;;;;;;;5.13;4.70;;;26.10;98.00;;;;;;5009724;28;20181;-78
2023/09/13 11:37:04;;;;;;;5.43;4.77;;;26.10;97.80;;;;;;5012311;28;20173;-78
2023/09/13 11:39:30;;;;;;;4.73;4.33;;;26.10;97.80;;;;;;5011769;28;20177;-78
2023/09/13 11:41:56;;;;;;;4.80;4.40;;;26.10;97.80;;;;;;5012084;28;20188;-77
2023/09/13 11:44:26;;;;;;;4.87;4.47;;;26.10;97.80;;;;;;5010304;28;20182;-78
2023/09/13 11:46:54;;;;;;;5.50;5.00;;;26.10;97.80;;;;;;5010962;28;20177;-78
2023/09/13 11:49:24;;;;;;;5.03;4.60;;;26.10;97.80;;;;;;5010635;28;20182;-78
2023/09/13 11:51:57;;;;;;;5.23;4.80;;;26.10;97.80;;;;;;5011646;28;20173;-78
2023/09/13 11:54:30;;;;;;;5.03;4.30;;;26.10;97.80;;;;;;5010980;28;20169;-77
2023/09/13 11:57:01;;;;;;;4.50;4.10;;;26.10;97.80;;;;;;5010354;28;20760;-77
2023/09/13 11:59:31;;;;;;;4.70;4.30;;;26.10;97.80;;;;;;5009380;28;20598;-78
2023/09/13 12:01:57;;;;;;;4.30;3.90;;;26.10;97.80;;;;;;5008941;28;20178;-78
2023/09/13 12:04:26;;;;;;;4.50;4.10;;;26.00;97.70;;;;;;5010916;28;20207;-78
2023/09/13 12:06:57;;;;;;;4.73;4.23;;;26.00;97.70;;;;;;5009686;28;20174;-78
2023/09/13 12:09:23;;;;;;;4.20;3.90;;;26.00;97.70;;;;;;5009719;28;20177;-78
2023/09/13 12:11:51;;;;;;;4.50;4.10;;;26.10;97.70;;;;;;5010426;28;20268;-78
2023/09/13 12:14:22;;;;;;;4.23;3.83;;;26.00;97.70;;;;;;5012194;28;20174;-78
2023/09/13 12:16:51;;;;;;;4.03;3.73;;;26.00;97.60;;;;;;5011956;28;20185;-78
2023/09/13 12:19:17;;;;;;;4.17;3.87;;;26.00;97.70;;;;;;5011748;28;20209;-79
2023/09/13 12:21:45;;;;;;;4.00;3.60;;;26.00;97.60;;;;;;5012036;28;20783;-78
2023/09/13 12:24:18;;;;;;;3.97;3.67;;;26.00;97.60;;;;;;5011626;28;20611;-79
2023/09/13 12:26:44;;;;;;;4.03;3.63;;;26.00;97.60;;;;;;5011598;28;20185;-78
2023/09/13 12:29:16;;;;;;;3.70;3.40;;;26.00;97.50;;;;;;5055553;28;20570;-78
2023/09/13 12:31:45;;;;;;;3.80;3.50;;;26.00;97.50;;;;;;5040057;28;20181;-78
2023/09/13 12:34:11;;;;;;;3.90;3.53;;;26.00;97.50;;;;;;5036705;28;20173;-79
2023/09/13 12:36:38;;;;;;;3.30;3.00;;;26.00;97.50;;;;;;5035169;28;20169;-78
2023/09/13 12:39:13;;;;;;;3.80;3.50;;;26.00;97.50;;;;;;5032131;28;20496;-78
2023/09/13 12:41:39;;;;;;;3.97;3.13;;;26.00;97.50;;;;;;5032339;28;20176;-77
2023/09/13 12:44:05;;;;;;;3.60;3.30;;;26.00;97.50;;;;;;5017228;28;20177;-78
2023/09/13 12:46:31;;;;;;;3.90;3.50;;;26.00;97.40;;;;;;5031411;28;20230;-78
2023/09/13 12:48:57;;;;;;;3.30;3.00;;;25.90;97.40;;;;;;5032095;28;20504;-78
2023/09/13 12:51:31;;;;;;;3.27;3.00;;;25.90;97.40;;;;;;5032422;28;20213;-78
2023/09/13 12:53:58;;;;;;;4.67;3.20;;;25.90;97.30;;;;;;5031303;28;20264;-78
2023/09/13 12:56:24;;;;;;;3.47;2.97;;;25.90;97.30;;;;;;5031236;28;20169;-78